Pennville, Missouri
Current Conditions -  °F | °C
As of 5:55 AM on Friday 24 Oct 2014 (Local Time) from KIRK Reporting Station
Moderate Fog Moderate Fog  
Wind Chill: 55°   Ceiling: 200
Heat Index: 55°   Visibility: 0.25mi
Dew Point: 55°   Wind: 3mph
Humidity: 100%   Direction: 240°WSW
Pressure: 30.07"   Gusts: NA
Location:  40.2455°N, 92.9523°W
Report Text: KIRK 241055Z AUTO 24003KT 1/4SM FG VV002 13/13 A3007 RMK AO2 SLP185 T01280128
Loading
Personal Weather Stations






























Interactive Weather Map
Tropical Storm Tracking
New forecast layout! Learn more

10-Day Weather Forecast

Advertisements
Track Severe Weather on mobile